Fargo, North Dakota
Current Conditions -  °F | °C
As of 9:53 AM on Wednesday 22 Oct 2014 (Local Time) from KFAR Reporting Station
Clear Clear  
Wind Chill: 13°   Ceiling: Unl
Heat Index: 13°   Visibility: 10mi
Dew Point:   Wind: 22mph
Humidity: 62%   Direction: 160°SSE
Pressure: 29.86"   Gusts: 32mph
Location:  46.88°N, 96.78°W
Report Text: KFAR 221453Z 16019G28KT 10SM CLR 13/06 A2986 RMK AO2 PK WND 15033/1402 SLP114 T01280056 55002
Loading
Personal Weather Stations






























Interactive Weather Map
Tropical Storm Tracking
New forecast layout! Learn more

10-Day Weather Forecast

Advertisements
Track Severe Weather on mobile